Time;durP1;ratioP1;P1;durP2;ratioP2;P2;SDS_P1;SDS_P2;PMS_P1;PMS_P2;Temp;Humidity;BMP_temperature;BMP_pressure;BME280_temperature;BME280_humidity;BME280_pressure;Samples;Min_cycle;Max_cycle;Signal;HPM_P1;HPM_P2
2021/01/10 00:00:22;;;;;;;6.47;5.78;;;19.00;39.50;;;;;;5028708;28;20183;-47
2021/01/10 00:02:52;;;;;;;6.05;5.20;;;19.00;39.40;;;;;;5029937;28;20029;-49
2021/01/10 00:05:22;;;;;;;6.70;6.10;;;19.00;39.50;;;;;;5028765;28;20029;-47
2021/01/10 00:10:19;;;;;;;9.23;5.75;;;18.90;39.50;;;;;;5061790;28;20616;-45
2021/01/10 00:12:45;;;;;;;6.22;5.60;;;19.00;39.60;;;;;;5066379;28;20021;-44
2021/01/10 00:15:13;;;;;;;11.45;6.60;;;19.00;39.60;;;;;;5069243;28;20040;-42
2021/01/10 00:17:41;;;;;;;8.07;6.25;;;18.90;39.90;;;;;;5069346;28;20029;-43
2021/01/10 00:20:08;;;;;;;8.10;5.78;;;18.90;39.40;;;;;;5048270;28;20036;-43
2021/01/10 00:22:34;;;;;;;6.88;6.05;;;18.90;39.40;;;;;;5049227;28;20029;-42
2021/01/10 00:25:00;;;;;;;6.43;5.38;;;18.90;39.50;;;;;;5048170;28;20041;-44
2021/01/10 00:27:26;;;;;;;7.30;6.38;;;18.90;39.30;;;;;;5048499;28;20025;-45
2021/01/10 00:29:52;;;;;;;8.48;5.95;;;18.90;39.50;;;;;;5048803;28;20101;-43
2021/01/10 00:32:19;;;;;;;8.15;6.28;;;18.90;39.50;;;;;;5031409;28;20107;-44
2021/01/10 00:34:44;;;;;;;8.93;6.45;;;18.90;39.40;;;;;;5048459;28;20028;-42
2021/01/10 00:37:17;;;;;;;7.20;6.25;;;18.90;39.40;;;;;;5049571;28;20025;-44
2021/01/10 00:39:43;;;;;;;6.45;5.78;;;18.90;39.50;;;;;;5048413;28;20398;-42
2021/01/10 00:42:09;;;;;;;5.75;5.13;;;18.90;39.40;;;;;;5051878;28;20056;-42
2021/01/10 00:44:36;;;;;;;9.43;6.95;;;18.90;39.40;;;;;;5051364;28;20040;-45
2021/01/10 00:47:02;;;;;;;7.72;6.28;;;18.80;39.40;;;;;;5049127;28;20037;-40
2021/01/10 00:49:28;;;;;;;7.70;6.00;;;18.80;39.30;;;;;;5031646;28;20021;-43
2021/01/10 00:51:53;;;;;;;8.15;6.15;;;18.80;39.30;;;;;;5047930;28;20029;-39
2021/01/10 00:54:20;;;;;;;8.27;6.57;;;18.80;39.40;;;;;;5047786;28;20178;-44
2021/01/10 00:56:46;;;;;;;7.78;6.07;;;18.80;39.30;;;;;;5049131;28;20494;-44
2021/01/10 00:59:11;;;;;;;9.75;6.65;;;18.80;39.30;;;;;;5049079;28;20036;-43
2021/01/10 01:01:37;;;;;;;6.28;5.53;;;18.80;39.30;;;;;;5030862;28;20036;-43
2021/01/10 01:04:02;;;;;;;8.43;6.45;;;18.80;39.30;;;;;;5048525;28;20036;-45
2021/01/10 01:06:28;;;;;;;10.55;5.57;;;18.80;39.40;;;;;;5049613;28;20024;-43
2021/01/10 01:08:53;;;;;;;7.75;6.70;;;18.80;39.40;;;;;;5049498;28;20553;-44
2021/01/10 01:11:33;;;;;;;7.30;5.60;;;18.80;39.40;;;;;;5050508;28;20052;-44
2021/01/10 01:13:59;;;;;;;7.78;5.97;;;18.80;39.50;;;;;;5050616;28;20082;-41
2021/01/10 01:16:25;;;;;;;10.13;6.43;;;18.80;39.40;;;;;;5047210;28;20036;-43
2021/01/10 01:18:50;;;;;;;7.40;5.75;;;18.80;39.40;;;;;;5047653;28;20027;-43
2021/01/10 01:21:20;;;;;;;6.90;5.55;;;18.80;39.30;;;;;;5047428;28;20040;-43
2021/01/10 01:23:50;;;;;;;6.10;5.18;;;18.80;39.30;;;;;;5047529;28;20037;-44
2021/01/10 01:26:16;;;;;;;8.65;6.32;;;18.80;39.40;;;;;;5048438;28;20078;-44
2021/01/10 01:28:43;;;;;;;7.32;6.20;;;18.80;39.40;;;;;;5047136;28;20057;-44
2021/01/10 01:31:13;;;;;;;6.93;5.65;;;18.80;39.40;;;;;;5047323;28;20062;-42
2021/01/10 01:33:39;;;;;;;9.27;5.75;;;18.80;39.40;;;;;;5047254;28;20066;-41
2021/01/10 01:36:10;;;;;;;7.90;5.30;;;18.70;39.30;;;;;;5048132;28;20025;-42
2021/01/10 01:38:37;;;;;;;6.70;6.00;;;18.80;39.40;;;;;;5047911;28;20032;-43
2021/01/10 01:41:03;;;;;;;9.85;5.57;;;18.70;39.40;;;;;;5047853;28;20040;-45
2021/01/10 01:43:28;;;;;;;7.88;5.63;;;18.70;39.40;;;;;;5047839;28;20025;-43
2021/01/10 01:45:54;;;;;;;8.55;5.88;;;18.70;39.40;;;;;;5046802;28;20677;-44
2021/01/10 01:48:20;;;;;;;7.78;5.15;;;18.70;39.50;;;;;;5047745;28;20052;-45
2021/01/10 01:50:46;;;;;;;5.90;4.80;;;18.70;39.50;;;;;;5047030;28;20036;-43
2021/01/10 01:53:11;;;;;;;8.88;5.35;;;18.70;39.40;;;;;;5047946;28;20025;-43
2021/01/10 01:55:38;;;;;;;6.70;4.63;;;18.70;39.50;;;;;;5047428;28;20040;-44
2021/01/10 01:58:06;;;;;;;6.55;5.47;;;18.70;39.40;;;;;;5047593;28;20044;-44
2021/01/10 02:00:32;;;;;;;6.72;5.10;;;18.70;39.50;;;;;;5047151;28;20102;-45
2021/01/10 02:02:58;;;;;;;5.85;5.30;;;18.70;39.40;;;;;;5048425;28;20111;-43
2021/01/10 02:05:29;;;;;;;6.47;5.07;;;18.70;39.40;;;;;;5049547;28;20080;-45
2021/01/10 02:07:57;;;;;;;7.07;5.50;;;18.70;39.50;;;;;;5050591;28;20069;-41
2021/01/10 02:10:28;;;;;;;6.25;5.18;;;18.70;39.40;;;;;;5052006;28;20037;-42
2021/01/10 02:12:58;;;;;;;6.57;4.72;;;18.70;39.40;;;;;;5051599;28;20647;-43
2021/01/10 02:15:27;;;;;;;6.22;5.05;;;18.70;39.50;;;;;;5050901;28;20029;-43
2021/01/10 02:17:54;;;;;;;6.25;5.45;;;18.60;39.50;;;;;;5050935;28;20037;-47
2021/01/10 02:20:31;;;;;;;6.10;5.13;;;18.60;39.50;;;;;;5050756;28;20048;-43
2021/01/10 02:23:19;;;;;;;7.13;4.68;;;18.70;39.50;;;;;;5051730;28;20393;-45
2021/01/10 02:25:46;;;;;;;5.55;4.93;;;18.60;39.50;;;;;;5050333;28;20136;-43
2021/01/10 02:28:14;;;;;;;6.63;5.15;;;18.60;39.60;;;;;;5051218;28;20021;-44
2021/01/10 02:30:42;;;;;;;6.63;4.70;;;18.60;39.50;;;;;;5050659;28;20021;-45
2021/01/10 02:33:27;;;;;;;5.80;4.72;;;18.60;39.60;;;;;;5046998;28;20076;-44
2021/01/10 02:35:54;;;;;;;8.48;4.97;;;18.60;39.40;;;;;;5046062;28;20029;-43
2021/01/10 02:38:41;;;;;;;5.15;4.65;;;18.60;39.60;;;;;;5051482;28;20036;-43
2021/01/10 02:41:22;;;;;;;6.03;4.25;;;18.60;39.50;;;;;;5051415;28;20029;-44
2021/01/10 02:44:06;;;;;;;5.65;4.50;;;18.60;39.40;;;;;;5050533;28;20036;-43
2021/01/10 02:46:35;;;;;;;5.50;4.55;;;18.50;39.50;;;;;;5039961;28;20645;-42
2021/01/10 02:49:01;;;;;;;5.70;4.68;;;18.60;39.50;;;;;;5049942;28;20060;-45
2021/01/10 02:51:26;;;;;;;4.85;4.22;;;18.50;39.50;;;;;;5032238;28;20056;-44
2021/01/10 02:53:52;;;;;;;5.75;4.22;;;18.60;39.60;;;;;;5050378;28;20056;-44
2021/01/10 02:56:18;;;;;;;4.47;4.07;;;18.60;39.60;;;;;;5050104;28;20037;-45
2021/01/10 02:58:43;;;;;;;7.43;4.38;;;18.60;39.50;;;;;;5057881;28;20542;-42
2021/01/10 03:01:11;;;;;;;5.07;4.05;;;18.60;39.40;;;;;;5046559;28;20081;-44
2021/01/10 03:03:37;;;;;;;5.20;4.05;;;18.50;39.30;;;;;;5050195;28;20143;-44
2021/01/10 03:06:04;;;;;;;6.63;4.30;;;18.60;39.50;;;;;;5050102;28;20029;-44
2021/01/10 03:08:30;;;;;;;4.55;3.85;;;18.50;39.40;;;;;;5050065;28;20029;-43
2021/01/10 03:10:56;;;;;;;5.10;4.03;;;18.60;39.70;;;;;;5050565;28;20029;-45
2021/01/10 03:13:22;;;;;;;5.18;4.68;;;18.50;39.60;;;;;;5032814;28;20551;-44
2021/01/10 03:15:48;;;;;;;5.07;4.60;;;18.60;39.50;;;;;;5049100;28;20059;-45
2021/01/10 03:18:18;;;;;;;4.45;3.60;;;18.50;39.50;;;;;;5050087;28;20100;-45
2021/01/10 03:20:44;;;;;;;4.32;3.80;;;18.60;39.60;;;;;;5027766;28;20021;-45
2021/01/10 03:23:10;;;;;;;4.38;3.97;;;18.50;39.60;;;;;;5041379;28;20029;-43
2021/01/10 03:25:36;;;;;;;6.00;4.30;;;18.50;39.60;;;;;;5049332;28;20035;-44
2021/01/10 03:28:02;;;;;;;4.82;3.72;;;18.50;39.50;;;;;;5049743;28;20036;-44
2021/01/10 03:30:27;;;;;;;5.88;4.20;;;18.50;39.50;;;;;;5031349;28;20047;-43
2021/01/10 03:32:53;;;;;;;5.82;4.22;;;18.50;39.50;;;;;;5050606;28;20104;-42
2021/01/10 03:35:19;;;;;;;5.22;3.70;;;18.50;39.60;;;;;;5049514;28;20769;-44
2021/01/10 03:37:47;;;;;;;5.03;3.97;;;18.50;39.60;;;;;;5049090;28;20024;-42
2021/01/10 03:40:14;;;;;;;6.85;4.35;;;18.50;39.60;;;;;;5050167;28;20040;-40
2021/01/10 03:42:40;;;;;;;5.43;4.85;;;18.50;39.50;;;;;;5049817;28;20029;-42
2021/01/10 03:45:07;;;;;;;4.82;4.30;;;18.50;39.60;;;;;;5049382;28;20028;-44
2021/01/10 03:47:33;;;;;;;5.05;3.50;;;18.50;39.70;;;;;;5049146;28;20045;-42
2021/01/10 03:49:59;;;;;;;5.60;4.55;;;18.50;39.60;;;;;;5049171;28;20051;-42
2021/01/10 03:52:25;;;;;;;4.82;4.32;;;18.50;39.70;;;;;;5049503;28;20531;-45
2021/01/10 03:54:51;;;;;;;4.75;4.10;;;18.50;39.80;;;;;;5031736;28;20406;-45
2021/01/10 03:57:16;;;;;;;4.78;4.30;;;18.50;39.60;;;;;;5048791;28;20037;-45
2021/01/10 03:59:42;;;;;;;5.60;4.22;;;18.50;39.70;;;;;;5031342;28;20029;-45
2021/01/10 04:02:07;;;;;;;4.72;4.25;;;18.50;39.70;;;;;;5031104;28;20043;-44
2021/01/10 04:04:33;;;;;;;4.88;3.47;;;18.40;39.60;;;;;;5048770;28;20021;-46
2021/01/10 04:06:59;;;;;;;5.22;4.38;;;18.50;39.70;;;;;;5049390;28;20071;-42
2021/01/10 04:09:24;;;;;;;5.28;4.63;;;18.40;39.60;;;;;;5048894;28;20490;-42
2021/01/10 04:11:50;;;;;;;5.80;4.90;;;18.40;39.60;;;;;;5050050;28;20091;-43
2021/01/10 04:14:15;;;;;;;4.57;4.07;;;18.40;39.80;;;;;;5030343;28;20033;-42
2021/01/10 04:16:41;;;;;;;4.90;4.15;;;18.40;39.70;;;;;;5048849;28;20033;-43
2021/01/10 04:19:06;;;;;;;5.80;4.32;;;18.40;39.70;;;;;;5048737;28;20033;-45
2021/01/10 04:21:33;;;;;;;5.60;4.65;;;18.40;39.70;;;;;;5049156;28;20063;-42
2021/01/10 04:23:59;;;;;;;4.50;4.10;;;18.40;39.80;;;;;;5048713;28;20029;-43
2021/01/10 04:26:25;;;;;;;5.03;4.43;;;18.40;39.70;;;;;;5031141;28;20512;-43
2021/01/10 04:28:50;;;;;;;5.30;4.68;;;18.40;39.70;;;;;;5048795;28;20033;-44
2021/01/10 04:31:16;;;;;;;6.53;4.82;;;18.40;39.70;;;;;;5048530;28;20060;-43
2021/01/10 04:33:42;;;;;;;5.18;4.35;;;18.40;39.60;;;;;;5048841;28;20061;-42
2021/01/10 04:36:08;;;;;;;6.93;4.95;;;18.50;39.50;;;;;;5048386;28;20029;-43
2021/01/10 04:38:34;;;;;;;5.72;4.05;;;18.50;39.40;;;;;;5048752;28;20533;-44
2021/01/10 04:41:00;;;;;;;5.13;4.50;;;18.40;39.50;;;;;;5048982;28;20024;-45
2021/01/10 04:43:26;;;;;;;5.20;4.70;;;18.40;39.50;;;;;;5030288;28;20021;-44
2021/01/10 04:45:52;;;;;;;6.15;4.25;;;18.40;39.60;;;;;;5048719;28;20040;-43
2021/01/10 04:48:18;;;;;;;6.70;5.18;;;18.40;39.60;;;;;;5030072;28;20040;-43
2021/01/10 04:50:44;;;;;;;5.72;4.18;;;18.40;39.60;;;;;;5030364;28;20030;-45
2021/01/10 04:53:12;;;;;;;6.43;4.47;;;18.40;39.60;;;;;;5048480;28;20035;-43
2021/01/10 04:55:38;;;;;;;6.63;4.10;;;18.40;39.60;;;;;;5048080;28;20104;-44
2021/01/10 04:58:06;;;;;;;5.05;4.53;;;18.40;39.60;;;;;;5048187;28;20037;-45
2021/01/10 05:00:33;;;;;;;6.28;4.05;;;18.40;39.70;;;;;;5050963;28;20025;-44
2021/01/10 05:03:08;;;;;;;5.47;4.72;;;18.40;39.60;;;;;;5048501;28;20036;-44
2021/01/10 05:05:37;;;;;;;5.85;5.07;;;18.40;39.60;;;;;;5047541;28;20021;-44
2021/01/10 05:08:11;;;;;;;6.53;4.75;;;18.40;39.70;;;;;;5013539;28;20044;-44
2021/01/10 05:10:38;;;;;;;6.68;4.90;;;18.40;39.80;;;;;;5048277;28;20032;-45
2021/01/10 05:13:05;;;;;;;5.78;4.25;;;18.40;39.70;;;;;;5048180;28;20029;-42
2021/01/10 05:15:31;;;;;;;7.40;5.13;;;18.40;39.70;;;;;;5047106;28;20090;-43
2021/01/10 05:17:58;;;;;;;6.10;4.78;;;18.40;39.60;;;;;;5047747;28;20037;-45
2021/01/10 05:20:32;;;;;;;5.25;4.20;;;18.40;39.70;;;;;;5051554;28;20653;-44
2021/01/10 05:23:01;;;;;;;6.07;4.80;;;18.40;39.70;;;;;;5053678;28;20052;-43
2021/01/10 05:25:27;;;;;;;4.93;4.13;;;18.40;39.60;;;;;;5053672;28;20604;-43
2021/01/10 05:27:55;;;;;;;6.25;4.93;;;18.40;39.70;;;;;;5051819;28;20033;-44
2021/01/10 05:30:30;;;;;;;6.18;4.68;;;18.40;39.70;;;;;;5048428;28;20033;-42
2021/01/10 05:32:59;;;;;;;5.75;4.78;;;18.40;39.70;;;;;;5047115;28;20036;-41
2021/01/10 05:35:25;;;;;;;7.45;4.82;;;18.40;39.60;;;;;;5047340;28;20040;-44
2021/01/10 05:37:55;;;;;;;7.63;4.80;;;18.40;39.50;;;;;;5046954;28;20043;-44
2021/01/10 05:40:30;;;;;;;8.20;5.47;;;18.30;39.50;;;;;;5047985;28;20177;-42
2021/01/10 05:43:04;;;;;;;5.82;4.80;;;18.30;39.50;;;;;;5029650;28;20044;-42
2021/01/10 05:45:34;;;;;;;5.70;4.68;;;18.30;39.60;;;;;;5047555;28;20033;-44
2021/01/10 05:48:11;;;;;;;6.82;4.85;;;18.30;39.60;;;;;;5047872;28;20513;-44
2021/01/10 05:50:55;;;;;;;6.05;4.35;;;18.30;39.60;;;;;;5047411;28;20080;-42
2021/01/10 05:53:22;;;;;;;7.15;5.15;;;18.30;39.60;;;;;;5028420;28;20086;-44
2021/01/10 05:55:59;;;;;;;5.82;4.53;;;18.40;39.60;;;;;;5046531;28;20024;-43
2021/01/10 05:58:30;;;;;;;4.93;4.28;;;18.40;39.70;;;;;;5047605;28;20104;-44
2021/01/10 06:01:10;;;;;;;6.47;4.57;;;18.30;39.70;;;;;;5047382;28;20112;-43
2021/01/10 06:03:37;;;;;;;5.47;4.38;;;18.40;39.70;;;;;;5047381;28;20033;-45
2021/01/10 06:06:04;;;;;;;5.75;4.65;;;18.40;39.70;;;;;;5046465;28;20155;-41
2021/01/10 06:08:33;;;;;;;5.80;4.63;;;18.30;39.60;;;;;;5047691;28;20103;-45
2021/01/10 06:11:21;;;;;;;7.28;5.28;;;18.30;39.60;;;;;;5046709;28;20490;-43
2021/01/10 06:13:52;;;;;;;5.97;4.57;;;18.30;39.70;;;;;;5029982;28;20025;-43
2021/01/10 06:16:19;;;;;;;6.97;5.35;;;18.30;39.70;;;;;;5046935;28;20036;-46
2021/01/10 06:19:05;;;;;;;5.55;4.68;;;18.30;39.60;;;;;;5047173;28;20478;-45
2021/01/10 06:21:32;;;;;;;5.97;4.85;;;18.30;39.60;;;;;;5028850;28;20048;-45
2021/01/10 06:24:00;;;;;;;5.85;4.85;;;18.30;39.70;;;;;;5046420;28;20178;-44
2021/01/10 06:26:27;;;;;;;5.25;4.75;;;18.30;39.70;;;;;;5047557;28;20035;-43
2021/01/10 06:29:08;;;;;;;6.10;4.57;;;18.30;39.60;;;;;;5046005;28;20024;-44
2021/01/10 06:31:36;;;;;;;6.30;4.72;;;18.30;39.60;;;;;;5047328;28;20367;-45
2021/01/10 06:34:10;;;;;;;6.03;5.38;;;18.30;39.70;;;;;;5046352;28;20036;-44
2021/01/10 06:36:42;;;;;;;6.38;4.70;;;18.30;39.70;;;;;;5029627;28;20040;-44
2021/01/10 06:39:12;;;;;;;;;;;18.30;39.60;;;;;;5046771;28;20056;-43
2021/01/10 06:41:53;;;;;;;7.25;5.07;;;18.30;39.70;;;;;;5047585;28;19912;-44
2021/01/10 06:44:20;;;;;;;6.78;4.78;;;18.30;39.70;;;;;;5046826;28;20029;-44
2021/01/10 06:46:54;;;;;;;5.43;4.68;;;18.30;39.80;;;;;;5047074;28;20029;-45
2021/01/10 06:49:21;;;;;;;6.13;4.90;;;18.30;40.30;;;;;;5046978;28;20087;-43
2021/01/10 06:51:49;;;;;;;5.35;4.70;;;18.20;39.80;;;;;;5050303;28;20036;-45
2021/01/10 06:54:15;;;;;;;6.45;4.95;;;18.30;39.70;;;;;;5050116;28;20370;-44
2021/01/10 06:57:07;;;;;;;7.07;4.90;;;18.30;39.70;;;;;;5050346;28;20036;-45
2021/01/10 06:59:54;;;;;;;8.13;4.97;;;18.20;39.70;;;;;;5045914;28;20335;-44
2021/01/10 07:02:19;;;;;;;6.45;4.53;;;18.20;39.70;;;;;;5050669;28;20033;-44
2021/01/10 07:04:56;;;;;;;8.85;5.63;;;18.20;39.80;;;;;;5049961;28;20029;-46
2021/01/10 07:07:33;;;;;;;5.30;4.70;;;18.20;39.70;;;;;;5050471;28;20052;-42
2021/01/10 07:09:58;;;;;;;5.97;4.85;;;18.20;39.60;;;;;;5067076;22;20020;-40
2021/01/10 07:12:24;;;;;;;8.88;5.82;;;18.20;39.70;;;;;;5071639;28;20040;-42
2021/01/10 07:14:50;;;;;;;6.72;4.82;;;18.30;39.80;;;;;;5072103;28;20044;-43
2021/01/10 07:17:17;;;;;;;7.63;4.90;;;18.20;39.70;;;;;;5071960;28;20032;-41
2021/01/10 07:19:45;;;;;;;7.25;5.57;;;18.20;39.80;;;;;;5072958;28;20028;-40
2021/01/10 07:22:28;;;;;;;6.85;5.20;;;18.20;40.70;;;;;;5073587;28;20039;-41
2021/01/10 07:24:54;;;;;;;6.53;5.20;;;18.20;40.30;;;;;;5061585;28;20515;-41
2021/01/10 07:27:28;;;;;;;7.18;5.63;;;18.20;40.50;;;;;;5065876;28;20482;-42
2021/01/10 07:29:54;;;;;;;8.35;5.93;;;18.20;40.60;;;;;;5061154;28;20024;-40
2021/01/10 07:32:34;;;;;;;9.05;6.68;;;18.20;40.60;;;;;;5072327;28;20028;-41
2021/01/10 07:35:03;;;;;;;10.38;6.90;;;18.20;40.50;;;;;;5052630;28;20040;-42
2021/01/10 07:37:29;;;;;;;8.00;5.72;;;18.20;40.40;;;;;;5065514;28;20139;-42
2021/01/10 07:39:56;;;;;;;8.70;6.35;;;18.20;40.40;;;;;;5071004;28;20649;-41
2021/01/10 07:42:24;;;;;;;9.95;7.40;;;18.20;40.40;;;;;;5061677;28;20524;-42
2021/01/10 07:44:58;;;;;;;11.25;7.80;;;18.20;40.30;;;;;;5069788;28;20067;-42
2021/01/10 07:47:29;;;;;;;11.98;7.78;;;18.20;40.30;;;;;;5065727;28;20029;-41
2021/01/10 07:49:56;;;;;;;14.90;8.73;;;18.20;40.30;;;;;;5071495;28;20082;-40
2021/01/10 07:52:42;;;;;;;14.95;8.95;;;18.20;40.30;;;;;;5072748;28;20497;-42
2021/01/10 07:55:20;;;;;;;12.65;8.63;;;18.20;40.30;;;;;;5071388;28;20111;-43
2021/01/10 07:58:13;;;;;;;15.85;9.52;;;18.10;40.10;;;;;;5067333;28;20036;-42
2021/01/10 08:00:44;;;;;;;14.20;10.02;;;18.10;40.00;;;;;;5064957;28;20059;-43
2021/01/10 08:03:19;;;;;;;13.52;9.00;;;18.10;40.00;;;;;;5067678;28;20103;-43
2021/01/10 08:05:58;;;;;;;16.30;9.70;;;18.10;39.90;;;;;;5055356;28;20028;-44
2021/01/10 08:08:41;;;;;;;14.55;9.77;;;18.10;40.00;;;;;;5071346;28;20028;-43
2021/01/10 08:11:08;;;;;;;16.35;10.20;;;18.10;40.00;;;;;;5070782;28;20064;-43
2021/01/10 08:13:33;;;;;;;13.32;9.85;;;18.10;39.90;;;;;;5061337;28;20028;-42
2021/01/10 08:16:25;;;;;;;17.83;10.35;;;18.10;39.90;;;;;;5070857;28;20444;-43
2021/01/10 08:18:52;;;;;;;15.32;9.68;;;18.10;39.90;;;;;;5064464;28;20060;-43
2021/01/10 08:21:18;;;;;;;14.75;9.68;;;18.20;39.90;;;;;;5067395;28;20040;-41
2021/01/10 08:23:46;;;;;;;14.55;9.20;;;18.20;39.90;;;;;;5062986;28;20040;-41
2021/01/10 08:26:18;;;;;;;15.68;10.18;;;18.10;39.90;;;;;;5070697;28;20024;-44
2021/01/10 08:28:44;;;;;;;;;;;18.10;39.80;;;;;;5068116;28;20033;-43
2021/01/10 08:31:20;;;;;;;15.30;10.20;;;18.10;39.80;;;;;;5070181;28;20393;-43
2021/01/10 08:33:46;;;;;;;15.05;10.45;;;18.10;39.80;;;;;;5068032;28;20385;-40
2021/01/10 08:36:19;;;;;;;15.98;10.40;;;18.10;39.80;;;;;;5066491;28;20151;-44
2021/01/10 08:38:57;;;;;;;14.05;10.07;;;18.10;39.80;;;;;;5062598;28;20055;-44
2021/01/10 08:41:28;;;;;;;16.27;11.10;;;18.20;39.80;;;;;;5069612;28;20516;-43
2021/01/10 08:43:56;;;;;;;14.68;9.27;;;18.10;39.90;;;;;;5075421;28;20029;-43
2021/01/10 08:46:26;;;;;;;15.10;9.93;;;18.10;39.80;;;;;;5064786;28;20055;-43
2021/01/10 08:48:52;;;;;;;15.48;10.27;;;18.10;39.70;;;;;;5059664;28;20028;-42
2021/01/10 08:51:31;;;;;;;14.95;10.77;;;18.10;39.70;;;;;;5071378;28;20124;-42
2021/01/10 08:53:57;;;;;;;15.75;11.80;;;18.10;39.80;;;;;;5060807;28;20051;-43
2021/01/10 08:56:23;;;;;;;15.57;11.10;;;18.10;39.80;;;;;;5064524;28;20060;-42
2021/01/10 08:58:55;;;;;;;13.93;9.82;;;18.10;39.80;;;;;;5069370;28;20046;-43
2021/01/10 09:01:28;;;;;;;17.48;10.85;;;18.10;39.80;;;;;;5079723;28;20564;-42
2021/01/10 09:04:08;;;;;;;17.80;11.30;;;18.10;39.80;;;;;;5076884;28;20021;-43
2021/01/10 09:06:34;;;;;;;14.07;10.73;;;18.10;39.80;;;;;;5086928;28;20040;-42
2021/01/10 09:09:23;;;;;;;14.05;11.18;;;18.10;39.80;;;;;;5088174;28;20028;-43
2021/01/10 09:11:59;;;;;;;14.48;10.07;;;18.10;39.80;;;;;;5087009;28;20027;-43
2021/01/10 09:14:27;;;;;;;16.20;11.32;;;18.10;39.80;;;;;;5085079;28;20302;-43
2021/01/10 09:16:53;;;;;;;14.88;10.32;;;18.10;39.90;;;;;;5084712;28;20087;-42
2021/01/10 09:19:22;;;;;;;18.67;11.75;;;18.10;39.90;;;;;;5082551;28;20032;-45
2021/01/10 09:21:48;;;;;;;17.35;10.95;;;18.10;39.80;;;;;;5087271;28;20088;-46
2021/01/10 09:24:14;;;;;;;18.63;10.73;;;18.10;39.90;;;;;;5086640;28;20032;-43
2021/01/10 09:26:40;;;;;;;14.85;10.95;;;18.10;40.00;;;;;;5085638;28;20024;-42
2021/01/10 09:29:17;;;;;;;18.88;12.05;;;18.10;39.90;;;;;;5059836;28;20071;-42
2021/01/10 09:31:45;;;;;;;17.55;12.43;;;18.10;39.90;;;;;;5063886;28;20021;-40
2021/01/10 09:34:11;;;;;;;18.23;11.38;;;18.10;39.90;;;;;;5070804;28;20036;-43
2021/01/10 09:36:37;;;;;;;15.48;10.93;;;18.10;39.90;;;;;;5069226;28;20093;-41
2021/01/10 09:39:05;;;;;;;18.70;11.55;;;18.00;39.80;;;;;;5069888;28;20024;-43
2021/01/10 09:41:31;;;;;;;16.25;11.50;;;18.00;39.80;;;;;;5069780;28;20104;-44
2021/01/10 09:43:58;;;;;;;17.02;12.27;;;18.10;39.90;;;;;;5070352;28;20653;-43
2021/01/10 09:46:30;;;;;;;16.02;11.63;;;18.00;39.90;;;;;;5068979;28;20040;-42
2021/01/10 09:49:20;;;;;;;17.45;11.88;;;18.10;39.90;;;;;;5070030;28;20027;-42
2021/01/10 09:52:02;;;;;;;16.50;11.80;;;18.10;39.90;;;;;;5052699;28;20039;-42
2021/01/10 09:54:35;;;;;;;15.32;11.80;;;18.00;39.90;;;;;;5068690;28;20035;-44
2021/01/10 09:57:08;;;;;;;18.85;11.82;;;18.00;39.80;;;;;;5064105;28;20094;-42
2021/01/10 09:59:43;;;;;;;16.13;11.10;;;18.00;39.90;;;;;;5062044;28;20033;-43
2021/01/10 10:02:10;;;;;;;17.75;11.82;;;18.00;40.00;;;;;;5063542;28;20051;-41
2021/01/10 10:04:36;;;;;;;15.80;10.98;;;18.00;39.90;;;;;;5060974;28;20032;-43
2021/01/10 10:07:03;;;;;;;17.90;11.57;;;18.00;39.90;;;;;;5059263;28;20644;-41
2021/01/10 10:09:48;;;;;;;15.07;11.15;;;18.00;39.90;;;;;;5052674;28;20086;-43
2021/01/10 10:12:15;;;;;;;16.67;11.15;;;18.00;39.90;;;;;;5052502;28;20040;-42
2021/01/10 10:14:49;;;;;;;14.05;11.05;;;18.00;39.90;;;;;;5053067;28;20533;-43
2021/01/10 10:17:15;;;;;;;16.83;11.55;;;18.10;39.80;;;;;;5070567;28;20032;-42
2021/01/10 10:19:40;;;;;;;16.17;11.45;;;18.00;39.80;;;;;;5070422;28;20639;-44
2021/01/10 10:22:23;;;;;;;16.02;11.50;;;18.10;39.90;;;;;;5067737;28;20074;-44
2021/01/10 10:24:50;;;;;;;16.73;11.48;;;18.10;39.80;;;;;;5072149;28;20044;-44
2021/01/10 10:27:16;;;;;;;15.23;12.00;;;18.10;39.80;;;;;;5074099;28;20040;-43
2021/01/10 10:29:41;;;;;;;13.95;11.38;;;18.00;39.80;;;;;;5068198;28;20029;-42
2021/01/10 10:32:07;;;;;;;17.73;11.93;;;18.00;39.80;;;;;;5073753;28;20036;-43
2021/01/10 10:34:33;;;;;;;15.00;11.88;;;18.00;39.80;;;;;;5072586;28;20032;-43
2021/01/10 10:36:59;;;;;;;15.68;11.68;;;18.00;39.80;;;;;;5070863;28;20025;-42
2021/01/10 10:39:25;;;;;;;14.60;11.35;;;18.10;39.90;;;;;;5074305;28;20517;-41
2021/01/10 10:41:51;;;;;;;16.63;10.65;;;18.00;39.90;;;;;;5060010;28;20100;-43
2021/01/10 10:44:16;;;;;;;13.45;10.32;;;18.00;39.80;;;;;;5073534;28;20162;-44
2021/01/10 10:46:42;;;;;;;14.13;10.27;;;18.10;39.90;;;;;;5073637;28;20413;-42
2021/01/10 10:49:07;;;;;;;14.85;11.15;;;18.00;39.80;;;;;;5072666;28;20052;-42
2021/01/10 10:51:33;;;;;;;14.00;10.65;;;18.00;39.80;;;;;;5069110;28;20025;-43
2021/01/10 10:53:58;;;;;;;15.45;10.65;;;18.00;39.80;;;;;;5072118;28;20382;-43
2021/01/10 10:56:34;;;;;;;15.70;11.57;;;18.00;39.80;;;;;;5073279;28;20389;-43
2021/01/10 10:59:01;;;;;;;15.55;11.35;;;18.00;39.80;;;;;;5072973;28;20056;-42
2021/01/10 11:01:37;;;;;;;14.60;10.77;;;18.00;39.80;;;;;;5070171;28;20036;-42
2021/01/10 11:04:02;;;;;;;16.13;10.98;;;18.00;39.90;;;;;;5070416;28;20453;-43
2021/01/10 11:06:28;;;;;;;12.57;10.88;;;18.00;39.80;;;;;;5072656;28;20115;-43
2021/01/10 11:08:53;;;;;;;14.73;10.60;;;18.00;39.90;;;;;;5069080;28;20037;-41
2021/01/10 11:11:19;;;;;;;15.05;11.40;;;18.00;39.90;;;;;;5067871;28;20048;-43
2021/01/10 11:13:44;;;;;;;15.23;11.02;;;18.00;39.90;;;;;;5073132;28;20033;-43
2021/01/10 11:16:10;;;;;;;12.98;10.15;;;18.00;39.90;;;;;;5073274;28;20037;-44
2021/01/10 11:18:35;;;;;;;13.48;10.52;;;18.00;39.90;;;;;;5074623;28;20485;-42
2021/01/10 11:21:01;;;;;;;15.27;10.05;;;18.00;39.90;;;;;;5071973;28;20436;-42
2021/01/10 11:23:27;;;;;;;12.20;9.90;;;18.00;40.00;;;;;;5074453;28;20029;-42
2021/01/10 11:25:52;;;;;;;14.00;10.13;;;18.00;39.90;;;;;;5071772;28;20060;-42
2021/01/10 11:28:18;;;;;;;15.80;10.48;;;18.00;39.90;;;;;;5070328;28;20045;-41
2021/01/10 11:30:43;;;;;;;13.88;10.38;;;18.00;39.90;;;;;;5069034;28;20033;-42
2021/01/10 11:33:09;;;;;;;13.80;10.25;;;18.00;39.90;;;;;;5068678;28;20141;-40
2021/01/10 11:35:34;;;;;;;10.60;8.73;;;18.00;40.00;;;;;;5065802;28;20044;-42
2021/01/10 11:38:00;;;;;;;13.98;10.27;;;18.00;40.00;;;;;;5073318;28;20062;-42
2021/01/10 11:40:25;;;;;;;15.55;9.57;;;18.00;39.90;;;;;;5069444;28;20036;-42
2021/01/10 11:42:51;;;;;;;11.52;9.10;;;18.00;40.00;;;;;;5061259;28;20043;-40
2021/01/10 11:45:17;;;;;;;14.57;9.23;;;18.00;40.00;;;;;;5071929;28;20045;-43
2021/01/10 11:47:42;;;;;;;13.32;9.23;;;18.00;39.90;;;;;;5063157;28;20518;-43
2021/01/10 11:50:08;;;;;;;12.82;9.95;;;18.00;40.00;;;;;;5069031;28;20115;-42
2021/01/10 11:52:33;;;;;;;12.70;8.73;;;18.00;39.90;;;;;;5062370;28;20118;-41
2021/01/10 11:54:59;;;;;;;14.32;9.57;;;18.00;40.00;;;;;;5063382;28;20040;-40
2021/01/10 11:57:24;;;;;;;14.60;9.20;;;18.00;40.00;;;;;;5065115;28;20076;-40
2021/01/10 11:59:50;;;;;;;11.65;8.80;;;18.00;40.00;;;;;;5066259;28;20024;-41
2021/01/10 12:02:16;;;;;;;11.98;8.57;;;18.00;40.10;;;;;;5071743;28;20078;-42
2021/01/10 12:04:41;;;;;;;13.23;9.27;;;18.00;40.00;;;;;;5068060;28;20040;-41
2021/01/10 12:07:07;;;;;;;11.65;8.60;;;18.00;40.00;;;;;;5071540;28;20032;-41
2021/01/10 12:09:32;;;;;;;10.43;8.57;;;18.00;40.20;;;;;;5066484;28;20017;-42
2021/01/10 12:11:58;;;;;;;12.43;8.32;;;18.00;40.10;;;;;;5061146;28;20490;-42
2021/01/10 12:14:23;;;;;;;11.18;8.50;;;17.90;40.20;;;;;;5065892;28;20044;-41
2021/01/10 12:16:49;;;;;;;11.48;8.13;;;18.00;40.20;;;;;;5061162;28;20441;-43
2021/01/10 12:19:14;;;;;;;13.85;8.25;;;18.00;40.20;;;;;;5058389;28;20488;-43
2021/01/10 12:21:40;;;;;;;14.38;9.20;;;18.00;40.20;;;;;;5055789;28;20558;-40
2021/01/10 12:24:06;;;;;;;11.75;8.05;;;18.00;40.20;;;;;;5062815;28;20039;-42
2021/01/10 12:26:32;;;;;;;11.80;8.57;;;18.00;40.20;;;;;;5071274;28;20063;-41
2021/01/10 12:28:58;;;;;;;12.25;7.47;;;18.00;40.20;;;;;;5070815;28;20025;-41
2021/01/10 12:31:24;;;;;;;11.18;7.75;;;18.10;39.90;;;;;;5071855;28;20029;-42
2021/01/10 12:33:49;;;;;;;11.35;7.90;;;18.20;39.80;;;;;;5070955;28;20503;-42
2021/01/10 12:36:15;;;;;;;8.52;6.60;;;18.30;39.70;;;;;;5065117;28;20287;-42
2021/01/10 12:38:41;;;;;;;10.25;7.57;;;18.40;39.40;;;;;;5057759;28;20081;-41
2021/01/10 12:41:08;;;;;;;9.23;7.15;;;18.50;39.40;;;;;;5069035;28;20397;-41
2021/01/10 12:43:34;;;;;;;8.90;6.78;;;18.60;39.20;;;;;;5068491;28;20049;-42
2021/01/10 12:45:59;;;;;;;10.45;6.60;;;18.70;39.20;;;;;;5062418;28;20122;-40
2021/01/10 12:48:25;;;;;;;10.15;6.50;;;18.80;39.20;;;;;;5060376;28;20103;-42
2021/01/10 12:50:51;;;;;;;9.23;6.78;;;18.80;39.00;;;;;;5067137;28;20017;-43